sensor_id;sensor_type;location;lat;lon;timestamp;pressure;altitude;pressure_sealevel;temperature;humidity
31911;BME280;18457;52.432;16.914;2023-04-09T00:02:09;101445.05;;;7.77;85.71
31911;BME280;18457;52.432;16.914;2023-04-09T00:04:41;101439.85;;;7.80;85.87
31911;BME280;18457;52.432;16.914;2023-04-09T00:07:13;101444.73;;;7.82;85.41
31911;BME280;18457;52.432;16.914;2023-04-09T00:09:45;101442.52;;;7.78;85.77
31911;BME280;18457;52.432;16.914;2023-04-09T00:12:17;101446.31;;;7.80;85.65
31911;BME280;18457;52.432;16.914;2023-04-09T00:14:49;101442.18;;;7.81;86.21
31911;BME280;18457;52.432;16.914;2023-04-09T00:17:20;101447.94;;;7.80;85.88
31911;BME280;18457;52.432;16.914;2023-04-09T00:19:53;101444.50;;;7.75;85.98
31911;BME280;18457;52.432;16.914;2023-04-09T00:22:25;101446.48;;;7.76;86.67
31911;BME280;18457;52.432;16.914;2023-04-09T00:24:57;101450.09;;;7.76;86.67
31911;BME280;18457;52.432;16.914;2023-04-09T00:27:29;101448.29;;;7.78;86.38
31911;BME280;18457;52.432;16.914;2023-04-09T00:30:00;101448.67;;;7.84;86.64
31911;BME280;18457;52.432;16.914;2023-04-09T00:32:32;101445.63;;;7.83;86.35
31911;BME280;18457;52.432;16.914;2023-04-09T00:35:06;101446.52;;;7.79;86.64
31911;BME280;18457;52.432;16.914;2023-04-09T00:37:38;101445.61;;;7.81;86.65
31911;BME280;18457;52.432;16.914;2023-04-09T00:40:11;101445.61;;;7.82;86.26
31911;BME280;18457;52.432;16.914;2023-04-09T00:42:43;101443.46;;;7.87;86.36
31911;BME280;18457;52.432;16.914;2023-04-09T00:45:15;101441.86;;;7.89;86.38
31911;BME280;18457;52.432;16.914;2023-04-09T00:47:47;101443.66;;;7.89;86.11
31911;BME280;18457;52.432;16.914;2023-04-09T00:50:19;101446.55;;;7.93;86.12
31911;BME280;18457;52.432;16.914;2023-04-09T00:52:52;101443.48;;;7.94;85.98
31911;BME280;18457;52.432;16.914;2023-04-09T00:55:24;101441.71;;;8.00;85.62
31911;BME280;18457;52.432;16.914;2023-04-09T00:57:56;101439.90;;;7.94;85.68
31911;BME280;18457;52.432;16.914;2023-04-09T01:00:28;101437.01;;;7.87;86.31
31911;BME280;18457;52.432;16.914;2023-04-09T01:03:00;101431.39;;;7.82;86.79
31911;BME280;18457;52.432;16.914;2023-04-09T01:05:39;101434.27;;;7.79;86.70
31911;BME280;18457;52.432;16.914;2023-04-09T01:08:18;101434.97;;;7.76;86.95
31911;BME280;18457;52.432;16.914;2023-04-09T01:10:56;101433.68;;;7.68;87.30
31911;BME280;18457;52.432;16.914;2023-04-09T01:13:36;101434.92;;;7.64;87.43
31911;BME280;18457;52.432;16.914;2023-04-09T01:16:11;101433.48;;;7.61;87.76
31911;BME280;18457;52.432;16.914;2023-04-09T01:18:46;101433.83;;;7.60;87.94
31911;BME280;18457;52.432;16.914;2023-04-09T01:21:24;101433.61;;;7.54;88.05
31911;BME280;18457;52.432;16.914;2023-04-09T01:24:01;101436.80;;;7.47;88.46
31911;BME280;18457;52.432;16.914;2023-04-09T01:26:55;101436.08;;;7.42;88.72
31911;BME280;18457;52.432;16.914;2023-04-09T01:29:38;101437.14;;;7.39;88.99
31911;BME280;18457;52.432;16.914;2023-04-09T01:32:11;101437.34;;;7.41;89.16
31911;BME280;18457;52.432;16.914;2023-04-09T01:34:45;101440.75;;;7.42;89.31
31911;BME280;18457;52.432;16.914;2023-04-09T01:37:18;101438.23;;;7.41;89.30
31911;BME280;18457;52.432;16.914;2023-04-09T01:39:51;101444.69;;;7.38;89.42
31911;BME280;18457;52.432;16.914;2023-04-09T01:42:23;101442.69;;;7.36;90.01
31911;BME280;18457;52.432;16.914;2023-04-09T01:44:56;101447.20;;;7.38;90.09
31911;BME280;18457;52.432;16.914;2023-04-09T01:47:30;101444.71;;;7.43;89.97
31911;BME280;18457;52.432;16.914;2023-04-09T01:50:03;101443.46;;;7.45;90.11
31911;BME280;18457;52.432;16.914;2023-04-09T01:52:35;101446.16;;;7.44;90.45
31911;BME280;18457;52.432;16.914;2023-04-09T01:55:08;101440.23;;;7.47;90.37
31911;BME280;18457;52.432;16.914;2023-04-09T01:57:40;101443.48;;;7.46;90.92
31911;BME280;18457;52.432;16.914;2023-04-09T02:00:14;101443.80;;;7.40;91.20
31911;BME280;18457;52.432;16.914;2023-04-09T02:02:50;101446.15;;;7.43;90.94
31911;BME280;18457;52.432;16.914;2023-04-09T02:05:26;101449.61;;;7.50;90.63
31911;BME280;18457;52.432;16.914;2023-04-09T02:08:01;101448.71;;;7.52;90.67
31911;BME280;18457;52.432;16.914;2023-04-09T02:10:35;101448.20;;;7.54;90.76
31911;BME280;18457;52.432;16.914;2023-04-09T02:13:10;101438.62;;;7.46;91.31
31911;BME280;18457;52.432;16.914;2023-04-09T02:15:47;101440.44;;;7.51;91.52
31911;BME280;18457;52.432;16.914;2023-04-09T02:18:24;101443.30;;;7.45;91.80
31911;BME280;18457;52.432;16.914;2023-04-09T02:20:57;101443.99;;;7.43;91.98
31911;BME280;18457;52.432;16.914;2023-04-09T02:23:30;101444.90;;;7.43;92.24
31911;BME280;18457;52.432;16.914;2023-04-09T02:26:03;101443.08;;;7.40;92.58
31911;BME280;18457;52.432;16.914;2023-04-09T02:28:35;101440.58;;;7.44;92.49
31911;BME280;18457;52.432;16.914;2023-04-09T02:31:07;101438.06;;;7.45;92.70
31911;BME280;18457;52.432;16.914;2023-04-09T02:33:40;101444.17;;;7.42;92.53
31911;BME280;18457;52.432;16.914;2023-04-09T02:36:13;101440.40;;;7.44;92.85
31911;BME280;18457;52.432;16.914;2023-04-09T02:38:45;101440.73;;;7.42;92.97
31911;BME280;18457;52.432;16.914;2023-04-09T02:41:16;101441.30;;;7.45;92.59
31911;BME280;18457;52.432;16.914;2023-04-09T02:43:48;101437.90;;;7.47;92.49
31911;BME280;18457;52.432;16.914;2023-04-09T02:46:20;101436.78;;;7.40;92.98
31911;BME280;18457;52.432;16.914;2023-04-09T02:48:52;101433.33;;;7.32;93.64
31911;BME280;18457;52.432;16.914;2023-04-09T02:51:24;101437.44;;;7.29;94.21
31911;BME280;18457;52.432;16.914;2023-04-09T02:53:56;101429.54;;;7.31;93.95
31911;BME280;18457;52.432;16.914;2023-04-09T02:56:28;101425.98;;;7.37;93.60
31911;BME280;18457;52.432;16.914;2023-04-09T02:59:00;101423.84;;;7.40;93.59
31911;BME280;18457;52.432;16.914;2023-04-09T03:01:32;101415.04;;;7.40;93.54
31911;BME280;18457;52.432;16.914;2023-04-09T03:04:04;101419.69;;;7.38;93.70
31911;BME280;18457;52.432;16.914;2023-04-09T03:06:37;101416.23;;;7.29;94.25
31911;BME280;18457;52.432;16.914;2023-04-09T03:09:09;101409.75;;;7.29;94.56
31911;BME280;18457;52.432;16.914;2023-04-09T03:11:40;101409.02;;;7.27;94.66
31911;BME280;18457;52.432;16.914;2023-04-09T03:14:12;101403.48;;;7.31;94.40
31911;BME280;18457;52.432;16.914;2023-04-09T03:16:44;101401.48;;;7.27;94.35
31911;BME280;18457;52.432;16.914;2023-04-09T03:19:16;101412.77;;;7.21;94.90
31911;BME280;18457;52.432;16.914;2023-04-09T03:21:48;101412.75;;;7.16;95.68
31911;BME280;18457;52.432;16.914;2023-04-09T03:24:22;101407.31;;;7.10;96.13
31911;BME280;18457;52.432;16.914;2023-04-09T03:26:55;101399.36;;;7.02;96.25
31911;BME280;18457;52.432;16.914;2023-04-09T03:29:28;101402.59;;;7.01;96.35
31911;BME280;18457;52.432;16.914;2023-04-09T03:32:00;101401.48;;;6.98;96.56
31911;BME280;18457;52.432;16.914;2023-04-09T03:34:32;101400.23;;;6.99;96.85
31911;BME280;18457;52.432;16.914;2023-04-09T03:37:04;101399.50;;;6.96;97.21
31911;BME280;18457;52.432;16.914;2023-04-09T03:39:36;101395.73;;;6.98;97.09
31911;BME280;18457;52.432;16.914;2023-04-09T03:42:09;101395.06;;;7.04;96.79
31911;BME280;18457;52.432;16.914;2023-04-09T03:44:46;101397.50;;;6.94;97.58
31911;BME280;18457;52.432;16.914;2023-04-09T03:47:28;101396.40;;;6.89;98.07
31911;BME280;18457;52.432;16.914;2023-04-09T03:50:00;101398.72;;;6.87;98.79
31911;BME280;18457;52.432;16.914;2023-04-09T03:52:41;101392.19;;;6.79;98.79
31911;BME280;18457;52.432;16.914;2023-04-09T03:55:13;101392.95;;;6.83;98.64
31911;BME280;18457;52.432;16.914;2023-04-09T03:57:45;101392.24;;;6.86;98.60
31911;BME280;18457;52.432;16.914;2023-04-09T04:00:19;101391.41;;;6.94;98.22
31911;BME280;18457;52.432;16.914;2023-04-09T04:03:05;101391.77;;;6.92;98.59
31911;BME280;18457;52.432;16.914;2023-04-09T04:05:58;101394.09;;;6.92;98.58
31911;BME280;18457;52.432;16.914;2023-04-09T04:08:33;101398.77;;;6.93;98.34
31911;BME280;18457;52.432;16.914;2023-04-09T04:11:06;101398.75;;;6.90;98.49
31911;BME280;18457;52.432;16.914;2023-04-09T04:13:38;101398.20;;;6.89;98.96
31911;BME280;18457;52.432;16.914;2023-04-09T04:16:11;101401.30;;;6.96;99.11
31911;BME280;18457;52.432;16.914;2023-04-09T04:18:43;101399.70;;;6.98;98.49
31911;BME280;18457;52.432;16.914;2023-04-09T04:21:16;101403.29;;;6.99;98.74
31911;BME280;18457;52.432;16.914;2023-04-09T04:23:51;101406.56;;;7.04;98.45
31911;BME280;18457;52.432;16.914;2023-04-09T04:26:26;101412.09;;;7.00;98.20
31911;BME280;18457;52.432;16.914;2023-04-09T04:28:58;101415.33;;;6.99;98.42
31911;BME280;18457;52.432;16.914;2023-04-09T04:31:40;101418.70;;;6.93;99.24
31911;BME280;18457;52.432;16.914;2023-04-09T04:34:12;101412.05;;;6.91;99.42
31911;BME280;18457;52.432;16.914;2023-04-09T04:36:45;101411.89;;;6.95;99.34
31911;BME280;18457;52.432;16.914;2023-04-09T04:39:17;101410.83;;;6.98;99.29
31911;BME280;18457;52.432;16.914;2023-04-09T04:41:57;101408.49;;;6.99;98.68
31911;BME280;18457;52.432;16.914;2023-04-09T04:44:30;101409.55;;;6.95;98.85
31911;BME280;18457;52.432;16.914;2023-04-09T04:47:16;101409.88;;;6.88;99.43
31911;BME280;18457;52.432;16.914;2023-04-09T04:49:48;101406.40;;;6.81;99.81
31911;BME280;18457;52.432;16.914;2023-04-09T04:52:21;101410.67;;;6.77;99.99
31911;BME280;18457;52.432;16.914;2023-04-09T04:54:55;101405.50;;;6.80;99.97
31911;BME280;18457;52.432;16.914;2023-04-09T04:57:26;101407.25;;;6.75;100.00
31911;BME280;18457;52.432;16.914;2023-04-09T04:59:58;101411.91;;;6.73;100.00
31911;BME280;18457;52.432;16.914;2023-04-09T05:02:30;101410.08;;;6.69;100.00
31911;BME280;18457;52.432;16.914;2023-04-09T05:05:23;101412.18;;;6.63;100.00
31911;BME280;18457;52.432;16.914;2023-04-09T05:07:56;101411.27;;;6.60;100.00
31911;BME280;18457;52.432;16.914;2023-04-09T05:10:28;101413.21;;;6.57;100.00
31911;BME280;18457;52.432;16.914;2023-04-09T05:13:00;101408.91;;;6.59;100.00
31911;BME280;18457;52.432;16.914;2023-04-09T05:15:39;101413.60;;;6.61;100.00
31911;BME280;18457;52.432;16.914;2023-04-09T05:18:11;101411.61;;;6.57;100.00
31911;BME280;18457;52.432;16.914;2023-04-09T05:20:44;101413.73;;;6.56;100.00
31911;BME280;18457;52.432;16.914;2023-04-09T05:23:16;101414.64;;;6.56;100.00
31911;BME280;18457;52.432;16.914;2023-04-09T05:25:50;101415.02;;;6.57;100.00
31911;BME280;18457;52.432;16.914;2023-04-09T05:28:28;101416.88;;;6.65;100.00
31911;BME280;18457;52.432;16.914;2023-04-09T05:31:08;101416.56;;;6.71;100.00
31911;BME280;18457;52.432;16.914;2023-04-09T05:33:47;101407.84;;;6.80;100.00
31911;BME280;18457;52.432;16.914;2023-04-09T05:36:22;101410.00;;;6.82;100.00
31911;BME280;18457;52.432;16.914;2023-04-09T05:38:55;101411.46;;;6.84;100.00
31911;BME280;18457;52.432;16.914;2023-04-09T05:41:27;101410.19;;;6.84;100.00
31911;BME280;18457;52.432;16.914;2023-04-09T05:44:10;101412.73;;;6.87;100.00
31911;BME280;18457;52.432;16.914;2023-04-09T05:46:42;101415.42;;;6.88;100.00
31911;BME280;18457;52.432;16.914;2023-04-09T05:49:15;101418.70;;;6.94;100.00
31911;BME280;18457;52.432;16.914;2023-04-09T05:51:48;101420.17;;;6.99;100.00
31911;BME280;18457;52.432;16.914;2023-04-09T05:54:25;101421.64;;;7.03;100.00
31911;BME280;18457;52.432;16.914;2023-04-09T05:56:57;101416.84;;;7.09;100.00
31911;BME280;18457;52.432;16.914;2023-04-09T05:59:29;101419.41;;;7.18;100.00
31911;BME280;18457;52.432;16.914;2023-04-09T06:02:01;101428.23;;;7.23;100.00
31911;BME280;18457;52.432;16.914;2023-04-09T06:04:33;101426.11;;;7.28;100.00
31911;BME280;18457;52.432;16.914;2023-04-09T06:07:05;101420.98;;;7.42;100.00
31911;BME280;18457;52.432;16.914;2023-04-09T06:09:36;101425.14;;;7.50;100.00
31911;BME280;18457;52.432;16.914;2023-04-09T06:12:08;101428.60;;;7.57;100.00
31911;BME280;18457;52.432;16.914;2023-04-09T06:14:40;101429.35;;;7.63;100.00
31911;BME280;18457;52.432;16.914;2023-04-09T06:17:12;101429.91;;;7.68;100.00
31911;BME280;18457;52.432;16.914;2023-04-09T06:19:45;101429.91;;;7.70;100.00
31911;BME280;18457;52.432;16.914;2023-04-09T06:22:17;101429.94;;;7.75;100.00
31911;BME280;18457;52.432;16.914;2023-04-09T06:24:49;101426.02;;;7.84;100.00
31911;BME280;18457;52.432;16.914;2023-04-09T06:27:21;101428.55;;;7.90;100.00
31911;BME280;18457;52.432;16.914;2023-04-09T06:29:53;101428.73;;;7.91;100.00
31911;BME280;18457;52.432;16.914;2023-04-09T06:32:25;101426.54;;;7.82;100.00
31911;BME280;18457;52.432;16.914;2023-04-09T06:34:57;101427.08;;;7.82;100.00
31911;BME280;18457;52.432;16.914;2023-04-09T06:37:29;101429.77;;;7.78;100.00
31911;BME280;18457;52.432;16.914;2023-04-09T06:40:02;101429.73;;;7.73;100.00
31911;BME280;18457;52.432;16.914;2023-04-09T06:42:34;101425.80;;;7.75;100.00
31911;BME280;18457;52.432;16.914;2023-04-09T06:45:13;101426.16;;;7.73;100.00
31911;BME280;18457;52.432;16.914;2023-04-09T06:47:46;101422.20;;;7.77;100.00
31911;BME280;18457;52.432;16.914;2023-04-09T06:50:18;101423.06;;;7.66;100.00
31911;BME280;18457;52.432;16.914;2023-04-09T06:52:51;101424.88;;;7.66;100.00
31911;BME280;18457;52.432;16.914;2023-04-09T06:55:23;101433.49;;;7.63;100.00
31911;BME280;18457;52.432;16.914;2023-04-09T06:57:56;101439.10;;;7.72;100.00
31911;BME280;18457;52.432;16.914;2023-04-09T07:00:28;101444.70;;;7.80;100.00
31911;BME280;18457;52.432;16.914;2023-04-09T07:03:00;101448.15;;;7.89;100.00
31911;BME280;18457;52.432;16.914;2023-04-09T07:05:32;101452.31;;;7.97;100.00
31911;BME280;18457;52.432;16.914;2023-04-09T07:08:05;101456.52;;;8.10;100.00
31911;BME280;18457;52.432;16.914;2023-04-09T07:10:37;101457.92;;;8.01;100.00
31911;BME280;18457;52.432;16.914;2023-04-09T07:13:10;101457.36;;;7.97;100.00
31911;BME280;18457;52.432;16.914;2023-04-09T07:15:44;101455.92;;;8.00;100.00
31911;BME280;18457;52.432;16.914;2023-04-09T07:18:16;101456.10;;;7.94;100.00
31911;BME280;18457;52.432;16.914;2023-04-09T07:20:48;101458.77;;;7.91;100.00
31911;BME280;18457;52.432;16.914;2023-04-09T07:23:21;101457.16;;;7.91;100.00
31911;BME280;18457;52.432;16.914;2023-04-09T07:25:53;101468.38;;;8.08;100.00
31911;BME280;18457;52.432;16.914;2023-04-09T07:28:25;101472.37;;;8.19;100.00
31911;BME280;18457;52.432;16.914;2023-04-09T07:30:57;101474.23;;;8.32;100.00
31911;BME280;18457;52.432;16.914;2023-04-09T07:33:31;101476.95;;;8.39;100.00
31911;BME280;18457;52.432;16.914;2023-04-09T07:36:03;101481.98;;;8.40;100.00
31911;BME280;18457;52.432;16.914;2023-04-09T07:38:35;101484.35;;;8.47;100.00
31911;BME280;18457;52.432;16.914;2023-04-09T07:41:07;101481.83;;;8.45;100.00
31911;BME280;18457;52.432;16.914;2023-04-09T07:43:41;101473.02;;;8.51;100.00
31911;BME280;18457;52.432;16.914;2023-04-09T07:46:19;101474.46;;;8.61;100.00
31911;BME280;18457;52.432;16.914;2023-04-09T07:48:51;101480.05;;;8.62;100.00
31911;BME280;18457;52.432;16.914;2023-04-09T07:51:25;101482.77;;;8.67;100.00
31911;BME280;18457;52.432;16.914;2023-04-09T07:53:57;101480.96;;;8.74;100.00
31911;BME280;18457;52.432;16.914;2023-04-09T07:56:29;101481.33;;;8.78;100.00
31911;BME280;18457;52.432;16.914;2023-04-09T07:59:01;101479.52;;;8.86;100.00
31911;BME280;18457;52.432;16.914;2023-04-09T08:01:33;101479.90;;;8.84;100.00
31911;BME280;18457;52.432;16.914;2023-04-09T08:04:05;101482.23;;;8.74;100.00
31911;BME280;18457;52.432;16.914;2023-04-09T08:06:40;101484.92;;;8.79;100.00
31911;BME280;18457;52.432;16.914;2023-04-09T08:09:12;101491.78;;;8.91;100.00
31911;BME280;18457;52.432;16.914;2023-04-09T08:11:45;101497.73;;;9.03;100.00
31911;BME280;18457;52.432;16.914;2023-04-09T08:14:17;101498.80;;;9.02;99.94
31911;BME280;18457;52.432;16.914;2023-04-09T08:16:50;101498.09;;;9.03;99.65
31911;BME280;18457;52.432;16.914;2023-04-09T08:19:22;101498.64;;;9.09;99.43
31911;BME280;18457;52.432;16.914;2023-04-09T08:21:54;101495.02;;;8.95;99.76
31911;BME280;18457;52.432;16.914;2023-04-09T08:24:28;101490.52;;;8.94;99.80
31911;BME280;18457;52.432;16.914;2023-04-09T08:27:00;101488.89;;;8.94;99.84
31911;BME280;18457;52.432;16.914;2023-04-09T08:29:32;101493.04;;;9.04;99.72
31911;BME280;18457;52.432;16.914;2023-04-09T08:32:05;101496.65;;;9.13;99.35
31911;BME280;18457;52.432;16.914;2023-04-09T08:34:37;101497.55;;;9.16;99.00
31911;BME280;18457;52.432;16.914;2023-04-09T08:37:09;101493.21;;;9.20;98.41
31911;BME280;18457;52.432;16.914;2023-04-09T08:39:42;101489.44;;;9.16;97.82
31911;BME280;18457;52.432;16.914;2023-04-09T08:42:14;101492.67;;;9.09;98.28
31911;BME280;18457;52.432;16.914;2023-04-09T08:44:46;101489.44;;;9.06;98.39
31911;BME280;18457;52.432;16.914;2023-04-09T08:47:19;101486.36;;;9.05;98.51
31911;BME280;18457;52.432;16.914;2023-04-09T08:49:50;101482.77;;;9.11;98.98
31911;BME280;18457;52.432;16.914;2023-04-09T08:52:31;101479.16;;;9.18;98.24
31911;BME280;18457;52.432;16.914;2023-04-09T08:55:03;101475.72;;;9.23;97.81
31911;BME280;18457;52.432;16.914;2023-04-09T08:57:37;101480.23;;;9.25;96.97
31911;BME280;18457;52.432;16.914;2023-04-09T09:00:12;101476.25;;;9.24;97.01
31911;BME280;18457;52.432;16.914;2023-04-09T09:03:04;101476.60;;;9.37;96.31
31911;BME280;18457;52.432;16.914;2023-04-09T09:05:40;101471.70;;;9.53;96.09
31911;BME280;18457;52.432;16.914;2023-04-09T09:08:13;101470.73;;;9.73;95.20
31911;BME280;18457;52.432;16.914;2023-04-09T09:10:53;101480.05;;;9.88;94.46
31911;BME280;18457;52.432;16.914;2023-04-09T09:13:26;101478.54;;;10.07;93.90
31911;BME280;18457;52.432;16.914;2023-04-09T09:16:15;101479.40;;;10.19;93.27
31911;BME280;18457;52.432;16.914;2023-04-09T09:18:48;101485.99;;;10.35;92.10
31911;BME280;18457;52.432;16.914;2023-04-09T09:21:23;101483.08;;;10.40;90.53
31911;BME280;18457;52.432;16.914;2023-04-09T09:23:57;101485.95;;;10.44;89.20
31911;BME280;18457;52.432;16.914;2023-04-09T09:26:30;101487.32;;;10.56;88.50
31911;BME280;18457;52.432;16.914;2023-04-09T09:29:00;101488.94;;;10.57;88.04
31911;BME280;18457;52.432;16.914;2023-04-09T09:31:34;101486.88;;;10.68;88.89
31911;BME280;18457;52.432;16.914;2023-04-09T09:34:17;101487.73;;;10.74;89.35
31911;BME280;18457;52.432;16.914;2023-04-09T09:36:48;101485.19;;;10.79;88.86
31911;BME280;18457;52.432;16.914;2023-04-09T09:39:20;101485.33;;;10.81;88.69
31911;BME280;18457;52.432;16.914;2023-04-09T09:42:07;101486.98;;;10.78;87.44
31911;BME280;18457;52.432;16.914;2023-04-09T09:44:39;101481.70;;;10.82;87.51
31911;BME280;18457;52.432;16.914;2023-04-09T09:47:12;101478.70;;;10.94;87.62
31911;BME280;18457;52.432;16.914;2023-04-09T09:49:45;101474.63;;;11.07;87.47
31911;BME280;18457;52.432;16.914;2023-04-09T09:52:22;101473.31;;;11.11;87.36
31911;BME280;18457;52.432;16.914;2023-04-09T09:54:55;101473.77;;;11.21;86.54
31911;BME280;18457;52.432;16.914;2023-04-09T09:57:32;101467.67;;;11.34;86.02
31911;BME280;18457;52.432;16.914;2023-04-09T10:00:10;101474.23;;;11.48;86.17
31911;BME280;18457;52.432;16.914;2023-04-09T10:02:46;101468.15;;;11.57;85.57
31911;BME280;18457;52.432;16.914;2023-04-09T10:05:20;101466.05;;;11.70;84.70
31911;BME280;18457;52.432;16.914;2023-04-09T10:07:57;101460.86;;;11.81;83.76
31911;BME280;18457;52.432;16.914;2023-04-09T10:10:31;101459.06;;;11.93;82.05
31911;BME280;18457;52.432;16.914;2023-04-09T10:13:02;101458.98;;;12.13;81.58
31911;BME280;18457;52.432;16.914;2023-04-09T10:15:36;101457.04;;;12.23;81.11
31911;BME280;18457;52.432;16.914;2023-04-09T10:18:08;101452.16;;;12.34;80.27
31911;BME280;18457;52.432;16.914;2023-04-09T10:20:45;101448.18;;;12.47;80.37
31911;BME280;18457;52.432;16.914;2023-04-09T10:23:26;101453.66;;;12.55;79.03
31911;BME280;18457;52.432;16.914;2023-04-09T10:26:02;101454.63;;;12.52;77.46
31911;BME280;18457;52.432;16.914;2023-04-09T10:28:34;101456.54;;;12.45;77.66
31911;BME280;18457;52.432;16.914;2023-04-09T10:31:08;101451.57;;;12.38;78.26
31911;BME280;18457;52.432;16.914;2023-04-09T10:33:40;101450.48;;;12.38;78.33
31911;BME280;18457;52.432;16.914;2023-04-09T10:36:19;101449.48;;;12.32;78.23
31911;BME280;18457;52.432;16.914;2023-04-09T10:38:52;101448.13;;;12.26;79.40
31911;BME280;18457;52.432;16.914;2023-04-09T10:41:28;101449.74;;;12.26;79.93
31911;BME280;18457;52.432;16.914;2023-04-09T10:44:06;101445.35;;;12.16;79.86
31911;BME280;18457;52.432;16.914;2023-04-09T10:46:51;101445.59;;;12.13;80.25
31911;BME280;18457;52.432;16.914;2023-04-09T10:49:24;101448.14;;;12.11;80.31
31911;BME280;18457;52.432;16.914;2023-04-09T10:52:04;101447.70;;;12.17;80.64
31911;BME280;18457;52.432;16.914;2023-04-09T10:54:47;101444.64;;;12.16;80.46
31911;BME280;18457;52.432;16.914;2023-04-09T10:57:21;101447.69;;;12.17;80.41
31911;BME280;18457;52.432;16.914;2023-04-09T10:59:55;101449.64;;;12.08;80.60
31911;BME280;18457;52.432;16.914;2023-04-09T11:05:36;101446.46;;;11.87;81.35
31911;BME280;18457;52.432;16.914;2023-04-09T11:08:09;101451.11;;;11.78;81.90
31911;BME280;18457;52.432;16.914;2023-04-09T11:10:43;101447.92;;;11.71;82.11
31911;BME280;18457;52.432;16.914;2023-04-09T11:13:17;101447.08;;;11.65;82.74
31911;BME280;18457;52.432;16.914;2023-04-09T11:15:50;101450.86;;;11.67;82.44
31911;BME280;18457;52.432;16.914;2023-04-09T11:18:23;101449.98;;;11.65;82.55
31911;BME280;18457;52.432;16.914;2023-04-09T11:20:56;101451.27;;;11.64;82.75
31911;BME280;18457;52.432;16.914;2023-04-09T11:23:29;101449.48;;;11.61;83.01
31911;BME280;18457;52.432;16.914;2023-04-09T11:26:04;101449.45;;;11.62;82.37
31911;BME280;18457;52.432;16.914;2023-04-09T11:28:36;101444.38;;;11.66;82.40
31911;BME280;18457;52.432;16.914;2023-04-09T11:31:14;101451.78;;;11.67;82.27
31911;BME280;18457;52.432;16.914;2023-04-09T11:33:48;101445.04;;;11.86;81.52
31911;BME280;18457;52.432;16.914;2023-04-09T11:36:23;101447.86;;;12.19;80.16
31911;BME280;18457;52.432;16.914;2023-04-09T11:38:57;101444.11;;;12.63;78.38
31911;BME280;18457;52.432;16.914;2023-04-09T11:41:36;101436.52;;;12.84;78.03
31911;BME280;18457;52.432;16.914;2023-04-09T11:44:09;101442.58;;;12.80;77.66
31911;BME280;18457;52.432;16.914;2023-04-09T11:46:42;101441.20;;;12.86;78.00
31911;BME280;18457;52.432;16.914;2023-04-09T11:49:14;101441.85;;;12.79;77.60
31911;BME280;18457;52.432;16.914;2023-04-09T11:51:45;101442.67;;;12.73;77.73
31911;BME280;18457;52.432;16.914;2023-04-09T11:54:17;101445.39;;;12.74;77.47
31911;BME280;18457;52.432;16.914;2023-04-09T11:56:51;101445.58;;;12.73;77.61
31911;BME280;18457;52.432;16.914;2023-04-09T11:59:25;101443.58;;;12.63;77.83
31911;BME280;18457;52.432;16.914;2023-04-09T12:01:59;101443.04;;;12.74;77.81
31911;BME280;18457;52.432;16.914;2023-04-09T12:04:31;101447.61;;;12.82;77.73
31911;BME280;18457;52.432;16.914;2023-04-09T12:07:06;101448.15;;;12.71;77.30
31911;BME280;18457;52.432;16.914;2023-04-09T12:09:48;101444.15;;;12.72;77.79
31911;BME280;18457;52.432;16.914;2023-04-09T12:12:22;101447.62;;;12.70;78.03
31911;BME280;18457;52.432;16.914;2023-04-09T12:14:54;101443.27;;;12.71;77.97
31911;BME280;18457;52.432;16.914;2023-04-09T12:17:29;101439.97;;;12.83;77.28
31911;BME280;18457;52.432;16.914;2023-04-09T12:20:04;101437.80;;;12.83;77.23
31911;BME280;18457;52.432;16.914;2023-04-09T12:22:38;101438.87;;;13.07;77.06
31911;BME280;18457;52.432;16.914;2023-04-09T12:25:11;101437.10;;;13.25;77.04
31911;BME280;18457;52.432;16.914;2023-04-09T12:27:43;101434.19;;;13.36;76.06
31911;BME280;18457;52.432;16.914;2023-04-09T12:30:15;101435.97;;;13.37;75.68
31911;BME280;18457;52.432;16.914;2023-04-09T12:32:48;101431.14;;;13.43;76.40
31911;BME280;18457;52.432;16.914;2023-04-09T12:35:21;101437.98;;;13.55;75.91
31911;BME280;18457;52.432;16.914;2023-04-09T12:37:53;101432.86;;;13.56;76.09
31911;BME280;18457;52.432;16.914;2023-04-09T12:40:25;101436.84;;;13.66;75.79
31911;BME280;18457;52.432;16.914;2023-04-09T12:42:58;101430.73;;;13.81;74.93
31911;BME280;18457;52.432;16.914;2023-04-09T12:45:30;101430.19;;;13.89;74.68
31911;BME280;18457;52.432;16.914;2023-04-09T12:48:02;101427.60;;;13.83;74.37
31911;BME280;18457;52.432;16.914;2023-04-09T12:50:34;101428.75;;;13.89;74.24
31911;BME280;18457;52.432;16.914;2023-04-09T12:53:06;101429.35;;;13.86;74.13
31911;BME280;18457;52.432;16.914;2023-04-09T12:55:38;101430.48;;;13.83;74.62
31911;BME280;18457;52.432;16.914;2023-04-09T12:58:12;101428.02;;;13.89;74.87
31911;BME280;18457;52.432;16.914;2023-04-09T13:00:44;101426.75;;;13.97;74.53
31911;BME280;18457;52.432;16.914;2023-04-09T13:03:16;101421.23;;;13.91;74.43
31911;BME280;18457;52.432;16.914;2023-04-09T13:05:49;101415.79;;;13.99;74.22
31911;BME280;18457;52.432;16.914;2023-04-09T13:08:21;101420.08;;;14.19;74.37
31911;BME280;18457;52.432;16.914;2023-04-09T13:10:52;101419.23;;;14.33;73.38
31911;BME280;18457;52.432;16.914;2023-04-09T13:13:24;101421.00;;;14.28;72.73
31911;BME280;18457;52.432;16.914;2023-04-09T13:15:58;101421.36;;;14.35;73.94
31911;BME280;18457;52.432;16.914;2023-04-09T13:18:30;101421.25;;;14.33;72.67
31911;BME280;18457;52.432;16.914;2023-04-09T13:21:01;101418.38;;;14.22;72.78
31911;BME280;18457;52.432;16.914;2023-04-09T13:23:33;101417.95;;;14.17;72.93